Time;durP1;ratioP1;P1;durP2;ratioP2;P2;SDS_P1;SDS_P2;PMS_P1;PMS_P2;Temp;Humidity;BMP_temperature;BMP_pressure;BME280_temperature;BME280_humidity;BME280_pressure;Samples;Min_cycle;Max_cycle;Signal;HPM_P1;HPM_P2
2022/10/18 00:00:42;;;;;;;;;;;13.50;99.90;;;;;;6152734;23;19920;-83
2022/10/18 00:03:09;;;;;;;;;;;13.70;99.90;;;;;;6153929;23;19920;-82
2022/10/18 00:05:36;;;;;;;;;;;13.80;99.90;;;;;;6153168;23;19952;-82
2022/10/18 00:08:03;;;;;;;;;;;13.90;99.90;;;;;;6153662;23;19920;-82
2022/10/18 00:10:29;;;;;;;;;;;13.80;99.90;;;;;;6152733;23;19927;-83
2022/10/18 00:12:56;;;;;;;;;;;13.70;99.90;;;;;;6154001;23;19931;-82
2022/10/18 00:15:23;;;;;;;;;;;13.60;99.90;;;;;;6152610;23;19925;-83
2022/10/18 00:17:50;;;;;;;;;;;13.60;99.90;;;;;;6153173;23;19921;-83
2022/10/18 00:20:17;;;;;;;;;;;13.50;99.90;;;;;;6154407;23;20003;-82
2022/10/18 00:22:43;;;;;;;;;;;13.50;99.90;;;;;;6152742;23;19960;-83
2022/10/18 00:25:10;;;;;;;;;;;13.40;99.90;;;;;;6178416;23;19927;-83
2022/10/18 00:27:37;;;;;;;;;;;13.30;99.90;;;;;;6152055;23;19975;-82
2022/10/18 00:30:05;;;;;;;;;;;13.20;99.90;;;;;;6153731;23;19969;-83
2022/10/18 00:32:36;;;;;;;;;;;13.30;99.90;;;;;;6152896;23;19924;-83
2022/10/18 00:35:04;;;;;;;;;;;13.20;99.90;;;;;;6153704;23;19959;-82
2022/10/18 00:37:31;;;;;;;;;;;13.20;99.90;;;;;;6151274;23;19952;-83
2022/10/18 00:39:58;;;;;;;;;;;13.20;99.90;;;;;;6153595;23;19921;-83
2022/10/18 00:42:35;;;;;;;;;;;13.20;99.90;;;;;;6153481;23;19975;-82
2022/10/18 00:45:12;;;;;;;;;;;13.20;99.90;;;;;;6129161;23;20400;-83
2022/10/18 00:47:39;;;;;;;;;;;12.90;99.90;;;;;;6154691;23;19996;-82
2022/10/18 00:50:07;;;;;;;;;;;12.90;99.90;;;;;;6153617;23;19920;-83
2022/10/18 00:52:39;;;;;;;;;;;12.80;99.90;;;;;;6153447;23;19925;-83
2022/10/18 00:55:07;;;;;;;;;;;12.80;99.90;;;;;;6152374;23;19920;-83
2022/10/18 00:57:35;;;;;;;;;;;12.80;99.90;;;;;;6154682;23;19983;-82
2022/10/18 01:00:08;;;;;;;;;;;12.80;99.90;;;;;;6141118;23;19959;-83
2022/10/18 01:02:36;;;;;;;;;;;12.70;99.90;;;;;;6173844;23;19905;-84
2022/10/18 01:05:03;;;;;;;;;;;12.70;99.90;;;;;;6173002;23;20330;-83
2022/10/18 01:08:00;;;;;;;;;;;12.70;99.90;;;;;;6174764;23;20265;-83
2022/10/18 01:10:27;;;;;;;;;;;12.70;99.90;;;;;;6160475;23;19925;-83
2022/10/18 01:13:19;;;;;;;;;;;12.70;99.90;;;;;;6173778;23;19928;-84
2022/10/18 01:15:51;;;;;;;;;;;12.70;99.90;;;;;;6174023;23;19943;-84
2022/10/18 01:18:24;;;;;;;;;;;12.70;99.90;;;;;;6174742;23;19948;-84
2022/10/18 01:21:20;;;;;;;;;;;12.70;99.90;;;;;;6173002;23;19905;-82
2022/10/18 01:23:47;;;;;;;;;;;12.70;99.90;;;;;;6160286;23;19929;-83
2022/10/18 01:26:23;;;;;;;;;;;12.70;99.90;;;;;;6172747;23;19928;-83
2022/10/18 01:29:04;;;;;;;;;;;12.70;99.90;;;;;;6172831;23;19921;-83
2022/10/18 01:31:51;;;;;;;;;;;12.70;99.90;;;;;;6172628;23;19931;-83
2022/10/18 01:34:25;;;;;;;;;;;12.80;99.90;;;;;;6171683;23;19920;-83
2022/10/18 01:36:52;;;;;;;;;;;12.80;99.90;;;;;;6169767;23;19944;-83
2022/10/18 01:39:21;;;;;;;;;;;12.80;99.90;;;;;;6172159;23;19931;-83
2022/10/18 01:41:50;;;;;;;;;;;12.80;99.90;;;;;;6171137;23;19947;-84
2022/10/18 01:44:19;;;;;;;;;;;12.70;99.90;;;;;;6172277;23;20238;-83
2022/10/18 01:46:46;;;;;;;;;;;12.70;99.90;;;;;;6171865;23;19923;-83
2022/10/18 01:49:13;;;;;;;;;;;12.70;99.90;;;;;;6172446;23;19999;-84
2022/10/18 01:51:39;;;;;;;;;;;12.70;99.90;;;;;;6172934;23;20334;-82
2022/10/18 01:54:06;;;;;;;;;;;12.70;99.90;;;;;;6198742;23;19924;-83
2022/10/18 01:56:36;;;;;;;;;;;12.80;99.90;;;;;;6172718;23;19920;-83
2022/10/18 01:59:13;;;;;;;;;;;12.80;99.90;;;;;;6174317;23;20265;-83
2022/10/18 02:01:42;;;;;;;;;;;12.80;99.90;;;;;;6174102;23;19925;-83
2022/10/18 02:04:29;;;;;;;;;;;12.80;99.90;;;;;;6176851;23;19925;-83
2022/10/18 02:07:01;;;;;;;;;;;12.80;99.90;;;;;;6169994;23;19921;-83
2022/10/18 02:09:37;;;;;;;;;;;12.80;99.90;;;;;;6175206;23;19927;-83
2022/10/18 02:12:06;;;;;;;;;;;12.90;99.90;;;;;;6174234;23;19932;-83
2022/10/18 02:14:33;;;;;;;;;;;12.90;99.90;;;;;;6174153;23;19904;-83
2022/10/18 02:17:01;;;;;;;;;;;13.00;99.90;;;;;;6171158;23;19928;-82
2022/10/18 02:19:31;;;;;;;;;;;13.00;99.90;;;;;;6170855;23;19937;-84
2022/10/18 02:21:58;;;;;;;;;;;13.00;99.90;;;;;;6172364;23;19921;-83
2022/10/18 02:24:32;;;;;;;;;;;13.00;99.90;;;;;;6173651;23;19924;-84
2022/10/18 02:26:59;;;;;;;;;;;12.90;99.90;;;;;;6172971;23;19924;-83
2022/10/18 02:29:26;;;;;;;;;;;12.90;99.90;;;;;;6199064;23;20266;-83
2022/10/18 02:32:01;;;;;;;;;;;12.80;99.90;;;;;;6174499;23;19920;-83
2022/10/18 02:34:29;;;;;;;;;;;12.80;99.90;;;;;;6171581;23;19945;-84
2022/10/18 02:36:58;;;;;;;;;;;12.80;99.90;;;;;;6170589;23;19971;-84
2022/10/18 02:39:27;;;;;;;;;;;12.70;99.90;;;;;;6163952;23;20368;-79
2022/10/18 02:41:55;;;;;;;;;;;12.70;99.90;;;;;;6153419;23;19931;-78
2022/10/18 02:44:22;;;;;;;;;;;12.70;99.90;;;;;;6154208;23;19995;-80
2022/10/18 02:46:49;;;;;;;;;;;12.70;99.90;;;;;;6153575;23;19927;-80
2022/10/18 02:49:15;;;;;;;;;;;12.70;99.90;;;;;;6154001;23;20338;-80
2022/10/18 02:51:42;;;;;;;;;;;12.60;99.90;;;;;;6153102;23;19952;-80
2022/10/18 02:54:09;;;;;;;;;;;12.60;99.90;;;;;;6153736;23;19992;-81
2022/10/18 02:56:36;;;;;;;;;;;12.60;99.90;;;;;;6153815;23;20257;-79
2022/10/18 02:59:04;;;;;;;;;;;12.50;99.90;;;;;;6153152;23;19952;-80
2022/10/18 03:01:31;;;;;;;;;;;12.50;99.90;;;;;;6155741;23;19927;-80
2022/10/18 03:03:59;;;;;;;;;;;12.50;99.90;;;;;;6153183;23;20659;-80
2022/10/18 03:06:25;;;;;;;;;;;12.50;99.90;;;;;;6154015;23;19952;-80
2022/10/18 03:08:52;;;;;;;;;;;12.50;99.90;;;;;;6153105;23;20318;-80
2022/10/18 03:11:19;;;;;;;;;;;12.50;99.90;;;;;;6153800;23;19999;-80
2022/10/18 03:13:46;;;;;;;;;;;12.40;99.90;;;;;;6153063;23;19991;-80
2022/10/18 03:16:12;;;;;;;;;;;12.30;99.90;;;;;;6153436;23;20334;-79
2022/10/18 03:18:39;;;;;;;;;;;12.40;99.90;;;;;;6155561;23;19925;-79
2022/10/18 03:21:06;;;;;;;;;;;12.30;99.90;;;;;;6153106;23;19921;-80
2022/10/18 03:23:33;;;;;;;;;;;12.30;99.90;;;;;;6153920;23;19921;-80
2022/10/18 03:26:00;;;;;;;;;;;12.30;99.90;;;;;;6154092;23;19952;-80
2022/10/18 03:28:27;;;;;;;;;;;12.30;99.90;;;;;;6153934;23;20007;-80
2022/10/18 03:30:58;;;;;;;;;;;12.30;99.90;;;;;;6152877;23;19927;-79
2022/10/18 03:33:25;;;;;;;;;;;12.20;99.90;;;;;;6153178;23;19924;-80
2022/10/18 03:35:51;;;;;;;;;;;12.20;99.90;;;;;;6153068;23;19920;-80
2022/10/18 03:38:18;;;;;;;;;;;12.20;99.90;;;;;;6153189;23;19952;-79
2022/10/18 03:40:45;;;;;;;;;;;12.10;99.90;;;;;;6152992;23;19927;-79
2022/10/18 03:43:11;;;;;;;;;;;12.10;99.90;;;;;;6153449;23;19921;-77
2022/10/18 03:45:38;;;;;;;;;;;12.10;99.90;;;;;;6153324;23;19930;-80
2022/10/18 03:48:05;;;;;;;;;;;12.10;99.90;;;;;;6152730;23;20020;-80
2022/10/18 03:50:32;;;;;;;;;;;12.00;99.90;;;;;;6153250;23;20369;-80
2022/10/18 03:52:58;;;;;;;;;;;12.10;99.90;;;;;;6152868;23;20407;-80
2022/10/18 03:55:25;;;;;;;;;;;12.00;99.90;;;;;;6153195;23;19927;-78
2022/10/18 03:57:52;;;;;;;;;;;12.00;99.90;;;;;;6152885;23;20314;-77
2022/10/18 04:00:19;;;;;;;;;;;12.00;99.90;;;;;;6153514;23;19987;-77
2022/10/18 04:02:45;;;;;;;;;;;12.00;99.90;;;;;;6153690;23;19921;-77
2022/10/18 04:05:15;;;;;;;;;;;12.00;99.90;;;;;;6153670;23;19927;-77
2022/10/18 04:07:41;;;;;;;;;;;11.90;99.90;;;;;;6154601;23;19927;-80
2022/10/18 04:10:08;;;;;;;;;;;11.90;99.90;;;;;;6153272;23;20318;-80
2022/10/18 04:12:35;;;;;;;;;;;11.90;99.90;;;;;;6154457;23;19921;-80
2022/10/18 04:15:02;;;;;;;;;;;11.90;99.90;;;;;;6153571;23;20306;-80
2022/10/18 04:17:29;;;;;;;;;;;11.90;99.90;;;;;;6154244;23;20365;-80
2022/10/18 04:19:56;;;;;;;;;;;11.90;99.90;;;;;;6153472;23;19968;-79
2022/10/18 04:22:23;;;;;;;;;;;11.90;99.90;;;;;;6153779;23;19992;-80
2022/10/18 04:24:51;;;;;;;;;;;11.90;99.90;;;;;;6153832;23;19921;-79
2022/10/18 04:27:18;;;;;;;;;;;11.90;99.90;;;;;;6154851;23;19996;-80
2022/10/18 04:29:45;;;;;;;;;;;11.80;99.90;;;;;;6153853;23;19988;-79
2022/10/18 04:32:12;;;;;;;;;;;11.80;99.90;;;;;;6153381;23;19921;-79
2022/10/18 04:34:38;;;;;;;;;;;11.80;99.90;;;;;;6153433;23;20007;-79
2022/10/18 04:37:05;;;;;;;;;;;11.70;99.90;;;;;;6152803;23;20326;-80
2022/10/18 04:39:32;;;;;;;;;;;11.70;99.90;;;;;;6154256;23;19921;-80
2022/10/18 04:41:58;;;;;;;;;;;11.70;99.90;;;;;;6153217;23;19948;-80
2022/10/18 04:44:25;;;;;;;;;;;11.70;99.90;;;;;;6153920;23;20085;-79
2022/10/18 04:46:52;;;;;;;;;;;11.60;99.90;;;;;;6154097;23;19991;-80
2022/10/18 04:49:19;;;;;;;;;;;11.60;99.90;;;;;;6152751;23;19991;-79
2022/10/18 04:51:45;;;;;;;;;;;11.60;99.90;;;;;;6153941;23;19991;-80
2022/10/18 04:54:12;;;;;;;;;;;11.60;99.90;;;;;;6154341;23;19969;-80
2022/10/18 04:56:39;;;;;;;;;;;11.50;99.90;;;;;;6153769;23;19951;-79
2022/10/18 04:59:06;;;;;;;;;;;11.50;99.90;;;;;;6153095;23;19921;-80
2022/10/18 05:01:33;;;;;;;;;;;11.50;99.90;;;;;;6153700;23;20300;-80
2022/10/18 05:03:59;;;;;;;;;;;11.50;99.90;;;;;;6152803;23;20257;-80
2022/10/18 05:06:26;;;;;;;;;;;11.40;99.90;;;;;;6153722;23;19943;-81
2022/10/18 05:08:53;;;;;;;;;;;11.40;99.90;;;;;;6154192;23;19940;-79
2022/10/18 05:11:20;;;;;;;;;;;11.30;99.90;;;;;;6152983;23;19965;-80
2022/10/18 05:13:47;;;;;;;;;;;11.30;99.90;;;;;;6153511;23;19927;-79
2022/10/18 05:16:16;;;;;;;;;;;11.30;99.90;;;;;;6152947;23;20293;-80
2022/10/18 05:18:43;;;;;;;;;;;11.30;99.90;;;;;;6154923;23;19928;-79
2022/10/18 05:21:11;;;;;;;;;;;11.40;99.90;;;;;;6152602;23;20000;-79
2022/10/18 05:23:38;;;;;;;;;;;11.40;99.90;;;;;;6153732;23;20257;-80
2022/10/18 05:26:05;;;;;;;;;;;11.30;99.90;;;;;;6152686;23;19921;-80
2022/10/18 05:28:32;;;;;;;;;;;11.30;99.90;;;;;;6153433;23;19939;-79
2022/10/18 05:31:06;;;;;;;;;;;11.30;99.90;;;;;;6152840;23;19921;-80
2022/10/18 05:33:33;;;;;;;;;;;11.30;99.90;;;;;;6155430;23;19995;-79
2022/10/18 05:36:00;;;;;;;;;;;11.30;99.90;;;;;;6155701;23;19967;-80
2022/10/18 05:38:29;;;;;;;;;;;11.30;99.90;;;;;;6154345;23;19996;-79
2022/10/18 05:40:57;;;;;;;;;;;11.20;99.90;;;;;;6155534;23;20269;-79
2022/10/18 05:43:26;;;;;;;;;;;11.20;99.90;;;;;;6154433;23;19958;-79
2022/10/18 05:45:53;;;;;;;;;;;11.30;99.90;;;;;;6155077;23;19920;-80
2022/10/18 05:48:20;;;;;;;;;;;11.20;99.90;;;;;;6154694;23;19943;-79
2022/10/18 05:50:46;;;;;;;;;;;11.30;99.90;;;;;;6155274;23;19996;-79
2022/10/18 05:53:13;;;;;;;;;;;11.30;99.90;;;;;;6154451;23;19996;-79
2022/10/18 05:56:00;;;;;;;;;;;11.30;99.90;;;;;;6155281;23;19924;-80
2022/10/18 05:58:27;;;;;;;;;;;11.30;99.90;;;;;;6154450;23;19931;-79
2022/10/18 06:00:53;;;;;;;;;;;11.20;99.90;;;;;;6155013;23;19927;-80
2022/10/18 06:03:20;;;;;;;;;;;11.20;99.90;;;;;;6153943;23;20356;-80
2022/10/18 06:05:47;;;;;;;;;;;11.10;99.90;;;;;;6154503;23;19988;-80
2022/10/18 06:08:14;;;;;;;;;;;11.10;99.90;;;;;;6154008;23;19921;-80
2022/10/18 06:10:40;;;;;;;;;;;11.00;99.90;;;;;;6154311;23;19927;-79
2022/10/18 06:13:07;;;;;;;;;;;11.00;99.90;;;;;;6153508;23;19927;-80
2022/10/18 06:15:34;;;;;;;;;;;11.00;99.90;;;;;;6154210;23;20351;-79
2022/10/18 06:18:00;;;;;;;;;;;11.00;99.90;;;;;;6154271;23;19920;-80
2022/10/18 06:20:27;;;;;;;;;;;11.10;99.90;;;;;;6153564;23;19996;-79
2022/10/18 06:22:54;;;;;;;;;;;11.10;99.90;;;;;;6176289;23;19925;-81
2022/10/18 06:25:21;;;;;;;;;;;11.20;99.90;;;;;;6152724;23;19927;-78
2022/10/18 06:27:47;;;;;;;;;;;11.20;99.90;;;;;;6155037;23;19924;-79
2022/10/18 06:30:14;;;;;;;;;;;11.20;99.90;;;;;;6154474;23;19992;-80
2022/10/18 06:32:41;;;;;;;;;;;11.20;99.90;;;;;;6155137;23;19992;-80
2022/10/18 06:35:08;;;;;;;;;;;11.20;99.90;;;;;;6154820;23;19926;-80
2022/10/18 06:37:35;;;;;;;;;;;11.20;99.90;;;;;;6154375;23;19964;-78
2022/10/18 06:40:03;;;;;;;;;;;11.30;99.90;;;;;;6154212;23;20619;-80
2022/10/18 06:42:30;;;;;;;;;;;11.30;99.90;;;;;;6153255;23;20911;-79
2022/10/18 06:44:59;;;;;;;;;;;11.40;99.90;;;;;;6153125;23;19920;-79
2022/10/18 06:47:25;;;;;;;;;;;11.40;99.90;;;;;;6153213;23;19948;-80
2022/10/18 06:49:52;;;;;;;;;;;11.50;99.90;;;;;;6154446;23;19927;-79
2022/10/18 06:52:24;;;;;;;;;;;11.60;99.90;;;;;;6153495;23;19959;-79
2022/10/18 06:54:51;;;;;;;;;;;11.70;99.90;;;;;;6155871;23;19921;-79
2022/10/18 06:57:19;;;;;;;;;;;11.80;99.90;;;;;;6153474;23;20311;-80
2022/10/18 06:59:46;;;;;;;;;;;11.90;99.90;;;;;;6154235;23;20257;-80
2022/10/18 07:02:18;;;;;;;;;;;12.00;99.90;;;;;;6152814;23;19942;-81
2022/10/18 07:04:45;;;;;;;;;;;12.10;99.90;;;;;;6154076;23;19921;-79
2022/10/18 07:07:11;;;;;;;;;;;12.20;99.90;;;;;;6154006;23;19921;-80
2022/10/18 07:09:39;;;;;;;;;;;12.30;99.90;;;;;;6153295;23;20386;-80
2022/10/18 07:12:05;;;;;;;;;;;12.40;99.90;;;;;;6152816;23;20256;-80
2022/10/18 07:14:32;;;;;;;;;;;12.60;99.90;;;;;;6153253;23;19948;-80
2022/10/18 07:16:59;;;;;;;;;;;12.70;99.90;;;;;;6155612;23;19920;-80
2022/10/18 07:19:26;;;;;;;;;;;12.90;99.90;;;;;;6153870;23;19951;-80
2022/10/18 07:21:52;;;;;;;;;;;13.10;99.90;;;;;;6154551;23;19936;-79
2022/10/18 07:24:19;;;;;;;;;;;13.20;99.90;;;;;;6153765;23;19920;-79
2022/10/18 07:26:46;;;;;;;;;;;13.40;99.90;;;;;;6154903;23;19971;-80
2022/10/18 07:29:13;;;;;;;;;;;13.60;99.90;;;;;;6154288;23;19955;-79
2022/10/18 07:31:39;;;;;;;;;;;13.80;99.90;;;;;;6153571;23;19927;-79
2022/10/18 07:34:07;;;;;;;;;;;13.90;99.90;;;;;;6154750;23;19921;-80
2022/10/18 07:36:34;;;;;;;;;;;14.10;99.90;;;;;;6153078;23;20367;-80
2022/10/18 07:39:01;;;;;;;;;;;14.30;99.90;;;;;;6154046;23;19920;-79
2022/10/18 07:41:28;;;;;;;;;;;14.50;99.90;;;;;;6128795;23;19988;-80
2022/10/18 07:43:54;;;;;;;;;;;14.70;99.90;;;;;;6129595;23;19920;-82
2022/10/18 07:46:21;;;;;;;;;;;15.00;99.90;;;;;;6128651;23;20532;-81
2022/10/18 07:48:48;;;;;;;;;;;15.10;99.90;;;;;;6129801;23;19944;-81
2022/10/18 07:51:16;;;;;;;;;;;15.30;99.90;;;;;;6154971;23;19991;-81
2022/10/18 07:53:42;;;;;;;;;;;15.50;99.90;;;;;;6129919;23;19926;-79
2022/10/18 07:56:14;;;;;;;;;;;15.70;99.90;;;;;;6129483;23;20261;-81
2022/10/18 07:58:42;;;;;;;;;;;15.90;99.90;;;;;;6154662;23;20250;-81
2022/10/18 08:01:08;;;;;;;;;;;16.10;99.90;;;;;;6130145;23;20308;-81
2022/10/18 08:03:36;;;;;;;;;;;16.30;99.90;;;;;;6128599;23;19999;-82
2022/10/18 08:06:03;;;;;;;;;;;16.40;99.90;;;;;;6155377;23;19995;-81
2022/10/18 08:08:30;;;;;;;;;;;16.60;99.90;;;;;;6128440;23;19930;-81
2022/10/18 08:11:01;;;;;;;;;;;16.70;97.90;;;;;;6129402;23;20349;-81
2022/10/18 08:13:28;;;;;;;;;;;16.90;98.30;;;;;;6128872;23;20227;-81
2022/10/18 08:16:01;;;;;;;;;;;17.10;98.00;;;;;;6129477;23;20262;-80
2022/10/18 08:18:28;;;;;;;;;;;17.10;94.70;;;;;;6128472;23;19927;-81
2022/10/18 08:20:55;;;;;;;;;;;17.30;94.90;;;;;;6155130;23;19927;-80
2022/10/18 08:23:22;;;;;;;;;;;17.40;94.20;;;;;;6129527;23;20337;-81
2022/10/18 08:25:48;;;;;;;;;;;17.60;94.20;;;;;;6139798;23;19969;-82
2022/10/18 08:28:16;;;;;;;;;;;17.80;93.70;;;;;;6146373;23;19945;-82
2022/10/18 08:30:43;;;;;;;;;;;18.00;93.40;;;;;;6153295;23;19935;-81
2022/10/18 08:33:09;;;;;;;;;;;18.20;93.00;;;;;;6179743;23;19945;-81
2022/10/18 08:35:36;;;;;;;;;;;18.40;91.80;;;;;;6155594;23;19929;-81
2022/10/18 08:38:03;;;;;;;;;;;18.50;91.30;;;;;;6172525;23;19912;-82
2022/10/18 08:40:32;;;;;;;;;;;18.70;86.70;;;;;;6178873;23;19925;-82
2022/10/18 08:42:59;;;;;;;;;;;18.80;85.30;;;;;;6180015;23;19909;-81
2022/10/18 08:45:26;;;;;;;;;;;19.00;85.70;;;;;;6180204;23;19921;-81
2022/10/18 08:48:27;;;;;;;;;;;19.10;83.60;;;;;;6181036;23;19938;-82
2022/10/18 08:50:55;;;;;;;;;;;19.30;79.90;;;;;;6180049;23;19928;-81
2022/10/18 08:53:30;;;;;;;;;;;19.50;78.30;;;;;;6179562;23;19904;-81
2022/10/18 08:56:09;;;;;;;;;;;19.60;78.40;;;;;;6179594;23;19928;-81
2022/10/18 08:58:37;;;;;;;;;;;19.80;76.00;;;;;;6179590;23;19911;-81
2022/10/18 09:01:07;;;;;;;;;;;19.90;75.50;;;;;;6180969;23;19912;-81
2022/10/18 09:03:51;;;;;;;;;;;20.10;74.10;;;;;;6179286;23;19928;-81
2022/10/18 09:06:24;;;;;;;;;;;20.20;72.40;;;;;;6177790;23;19911;-81
2022/10/18 09:09:01;;;;;;;;;;;20.30;70.30;;;;;;6178950;23;19920;-81
2022/10/18 09:11:33;;;;;;;;;;;20.40;70.00;;;;;;6179889;23;19912;-81
2022/10/18 09:14:19;;;;;;;;;;;20.50;69.40;;;;;;6174847;23;19972;-82
2022/10/18 09:16:52;;;;;;;;;;;20.60;68.40;;;;;;6177416;23;19931;-81
2022/10/18 09:19:37;;;;;;;;;;;20.70;66.40;;;;;;6147111;23;19917;-81
2022/10/18 09:22:12;;;;;;;;;;;20.70;66.40;;;;;;6203703;23;19904;-81
2022/10/18 09:24:58;;;;;;;;;;;20.90;66.90;;;;;;6180598;23;19908;-81
2022/10/18 09:27:39;;;;;;;;;;;21.10;67.20;;;;;;6177868;23;20338;-81
2022/10/18 09:30:32;;;;;;;;;;;21.20;63.30;;;;;;6178972;23;19904;-81
2022/10/18 09:33:18;;;;;;;;;;;21.20;63.20;;;;;;6176716;23;19920;-82
2022/10/18 09:35:51;;;;;;;;;;;21.40;64.00;;;;;;6180104;23;19935;-81
2022/10/18 09:38:20;;;;;;;;;;;21.40;61.10;;;;;;6178573;23;19905;-82
2022/10/18 09:41:05;;;;;;;;;;;21.40;60.50;;;;;;6179293;23;19936;-81
2022/10/18 09:43:44;;;;;;;;;;;21.40;60.90;;;;;;6177992;23;19928;-82
2022/10/18 09:46:12;;;;;;;;;;;21.50;61.40;;;;;;6177088;23;19920;-81
2022/10/18 09:48:47;;;;;;;;;;;21.50;64.00;;;;;;6179801;23;19909;-81
2022/10/18 09:51:20;;;;;;;;;;;21.70;61.20;;;;;;6178748;23;20304;-82
2022/10/18 09:53:53;;;;;;;;;;;21.80;61.20;;;;;;6179784;23;19912;-82
2022/10/18 09:56:25;;;;;;;;;;;21.90;63.80;;;;;;6179336;23;19921;-82
2022/10/18 09:58:52;;;;;;;;;;;22.00;61.50;;;;;;6178990;23;19928;-82
2022/10/18 10:01:20;;;;;;;;;;;22.10;60.10;;;;;;6177534;23;19921;-82
2022/10/18 10:03:47;;;;;;;;;;;22.20;59.40;;;;;;6178030;23;20730;-82
2022/10/18 10:06:24;;;;;;;;;;;22.30;60.60;;;;;;6177763;23;19995;-82
2022/10/18 10:08:58;;;;;;;;;;;22.30;59.90;;;;;;6176741;23;19928;-82
2022/10/18 10:11:26;;;;;;;;;;;22.50;60.30;;;;;;6178565;23;19904;-81
2022/10/18 10:14:13;;;;;;;;;;;22.40;59.30;;;;;;6162086;23;20291;-82
2022/10/18 10:16:43;;;;;;;;;;;22.20;60.60;;;;;;6162223;23;19964;-82
2022/10/18 10:19:17;;;;;;;;;;;22.30;60.90;;;;;;6158266;23;19927;-83
2022/10/18 10:21:45;;;;;;;;;;;22.40;61.50;;;;;;6179231;23;19904;-82
2022/10/18 10:24:35;;;;;;;;;;;22.40;60.50;;;;;;6180578;23;19928;-82
2022/10/18 10:27:04;;;;;;;;;;;22.20;60.30;;;;;;6171838;23;19905;-82
2022/10/18 10:29:50;;;;;;;;;;;22.20;62.10;;;;;;6179010;23;19920;-82
2022/10/18 10:32:19;;;;;;;;;;;22.30;61.30;;;;;;6179761;23;20796;-82
2022/10/18 10:34:45;;;;;;;;;;;22.20;61.90;;;;;;6180875;23;19921;-82
2022/10/18 10:37:32;;;;;;;;;;;22.20;64.40;;;;;;6177506;23;19935;-80
2022/10/18 10:40:06;;;;;;;;;;;22.20;62.70;;;;;;6178659;23;19920;-82
2022/10/18 10:42:59;;;;;;;;;;;22.50;63.60;;;;;;6180815;23;19924;-82
2022/10/18 10:45:55;;;;;;;;;;;22.70;62.90;;;;;;6181573;23;19921;-82
2022/10/18 10:48:22;;;;;;;;;;;22.80;61.30;;;;;;6180397;23;19948;-82
2022/10/18 10:50:52;;;;;;;;;;;23.00;60.70;;;;;;6180645;23;20020;-82
2022/10/18 10:53:28;;;;;;;;;;;23.00;59.70;;;;;;6176775;23;19944;-83
2022/10/18 10:55:56;;;;;;;;;;;23.10;59.70;;;;;;6176012;23;19936;-83
2022/10/18 10:58:23;;;;;;;;;;;22.90;59.30;;;;;;6165077;23;19948;-82
2022/10/18 11:00:50;;;;;;;;;;;23.00;59.30;;;;;;6177239;23;19927;-82
2022/10/18 11:03:19;;;;;;;;;;;23.20;61.00;;;;;;6173874;23;19959;-83
2022/10/18 11:05:56;;;;;;;;;;;23.30;59.70;;;;;;6178832;23;19928;-83
2022/10/18 11:08:25;;;;;;;;;;;23.30;59.70;;;;;;6177111;23;19921;-83
2022/10/18 11:10:55;;;;;;;;;;;23.40;60.70;;;;;;6174335;23;19920;-84
2022/10/18 11:13:22;;;;;;;;;;;23.40;58.80;;;;;;6181414;23;20257;-82
2022/10/18 11:15:52;;;;;;;;;;;23.40;59.80;;;;;;6178845;23;19912;-82
2022/10/18 11:18:24;;;;;;;;;;;23.50;58.70;;;;;;6179284;23;19905;-82
2022/10/18 11:21:06;;;;;;;;;;;23.50;58.40;;;;;;6178359;23;19924;-82
2022/10/18 11:23:35;;;;;;;;;;;23.70;59.40;;;;;;6179332;23;19921;-82
2022/10/18 11:26:11;;;;;;;;;;;23.70;58.10;;;;;;6176892;23;20509;-82
2022/10/18 11:28:50;;;;;;;;;;;23.80;57.40;;;;;;6177519;23;19921;-82
2022/10/18 11:31:21;;;;;;;;;;;23.60;57.90;;;;;;6180345;23;19905;-82
2022/10/18 11:33:51;;;;;;;;;;;23.80;59.30;;;;;;6178021;23;19928;-82
2022/10/18 11:36:38;;;;;;;;;;;24.10;58.70;;;;;;6180278;23;19921;-83
2022/10/18 11:39:28;;;;;;;;;;;24.20;58.60;;;;;;6176567;23;19905;-83
2022/10/18 11:42:14;;;;;;;;;;;24.30;56.40;;;;;;6173117;23;19929;-84
2022/10/18 11:44:41;;;;;;;;;;;24.50;57.20;;;;;;6175811;23;19921;-83
2022/10/18 11:47:13;;;;;;;;;;;24.50;57.50;;;;;;6174883;23;19921;-82
2022/10/18 11:49:42;;;;;;;;;;;24.20;57.80;;;;;;6176372;23;19909;-84
2022/10/18 11:52:18;;;;;;;;;;;24.00;57.90;;;;;;6179524;23;19920;-83
2022/10/18 11:54:48;;;;;;;;;;;23.90;59.90;;;;;;6179330;23;19905;-83
2022/10/18 11:57:14;;;;;;;;;;;24.10;59.30;;;;;;6179065;23;19921;-84
2022/10/18 11:59:53;;;;;;;;;;;24.30;59.20;;;;;;6178075;23;19922;-83
2022/10/18 12:02:20;;;;;;;;;;;24.30;57.70;;;;;;6179851;23;19928;-84
2022/10/18 12:04:51;;;;;;;;;;;24.50;58.80;;;;;;6179045;23;19928;-84
2022/10/18 12:07:59;;;;;;;;;;;24.70;58.00;;;;;;6178183;23;19939;-83
2022/10/18 12:10:27;;;;;;;;;;;24.70;57.10;;;;;;6179541;23;19921;-84
2022/10/18 12:13:21;;;;;;;;;;;25.00;57.70;;;;;;6179381;23;20348;-84
2022/10/18 12:15:50;;;;;;;;;;;25.10;57.70;;;;;;6178793;23;19905;-84
2022/10/18 12:18:18;;;;;;;;;;;25.20;56.00;;;;;;6178766;23;19905;-83
2022/10/18 12:20:52;;;;;;;;;;;25.30;57.00;;;;;;6176505;23;19921;-84
2022/10/18 12:23:37;;;;;;;;;;;25.10;55.50;;;;;;6172448;23;19927;-84
2022/10/18 12:26:06;;;;;;;;;;;25.10;56.70;;;;;;6172131;23;19940;-84
2022/10/18 12:28:41;;;;;;;;;;;25.10;56.30;;;;;;6176942;23;19920;-84
2022/10/18 12:31:14;;;;;;;;;;;25.20;56.30;;;;;;6173533;23;19904;-83
2022/10/18 12:33:43;;;;;;;;;;;25.20;55.80;;;;;;6165211;23;19927;-84
2022/10/18 12:36:13;;;;;;;;;;;25.50;56.10;;;;;;6169342;23;19921;-84
2022/10/18 12:38:41;;;;;;;;;;;25.40;55.60;;;;;;6176125;23;19944;-84
2022/10/18 12:41:27;;;;;;;;;;;25.30;55.50;;;;;;6175288;23;20257;-83
2022/10/18 12:43:57;;;;;;;;;;;25.30;56.00;;;;;;6175554;23;19917;-84
2022/10/18 12:46:41;;;;;;;;;;;25.40;55.30;;;;;;6176929;23;19920;-82
2022/10/18 12:49:09;;;;;;;;;;;25.30;55.00;;;;;;6176313;23;20253;-83
2022/10/18 12:51:47;;;;;;;;;;;25.20;56.70;;;;;;6179882;23;19928;-83
2022/10/18 12:54:25;;;;;;;;;;;25.50;56.60;;;;;;6178397;23;20272;-83
2022/10/18 12:56:54;;;;;;;;;;;25.50;55.20;;;;;;6181057;23;19931;-83
2022/10/18 12:59:25;;;;;;;;;;;25.50;55.60;;;;;;6178371;23;19935;-83
2022/10/18 13:01:51;;;;;;;;;;;25.70;55.30;;;;;;6177771;23;19928;-84
2022/10/18 13:04:28;;;;;;;;;;;25.40;55.50;;;;;;6164334;23;19927;-85
2022/10/18 13:07:03;;;;;;;;;;;25.40;55.20;;;;;;6159838;23;19921;-79
2022/10/18 13:09:30;;;;;;;;;;;25.40;54.90;;;;;;6159468;23;19921;-82
2022/10/18 13:12:09;;;;;;;;;;;25.60;56.50;;;;;;6163468;23;19937;-82
2022/10/18 13:14:55;;;;;;;;;;;25.70;55.80;;;;;;6168711;23;20007;-83
2022/10/18 13:17:45;;;;;;;;;;;25.60;54.80;;;;;;6160130;23;20269;-84
2022/10/18 13:20:15;;;;;;;;;;;25.50;54.30;;;;;;6156972;23;19927;-87
2022/10/18 13:23:02;;;;;;;;;;;25.20;55.80;;;;;;6155509;23;19975;-85
2022/10/18 13:25:51;;;;;;;;;;;25.30;56.00;;;;;;6158036;23;19921;-86
2022/10/18 13:28:45;;;;;;;;;;;25.00;55.40;;;;;;6164154;23;19928;-85
2022/10/18 13:31:43;;;;;;;0.00;0.00;;;24.40;57.40;;;;;;6157840;23;19927;-82
2022/10/18 13:34:25;;;;;;;0.00;0.00;;;24.50;57.90;;;;;;6163664;23;20061;-85
2022/10/18 13:37:01;;;;;;;0.00;0.00;;;24.50;59.00;;;;;;6165587;23;20022;-84
2022/10/18 13:39:29;;;;;;;0.00;0.00;;;24.70;57.80;;;;;;6136284;23;20104;-84
2022/10/18 13:41:55;;;;;;;0.00;0.00;;;24.80;58.30;;;;;;6133177;23;20052;-82
2022/10/18 13:44:31;;;;;;;0.00;0.00;;;25.00;57.20;;;;;;6130482;23;20111;-82
2022/10/18 13:47:00;;;;;;;0.10;0.10;;;25.20;57.10;;;;;;6130096;23;20053;-81
2022/10/18 13:49:30;;;;;;;0.20;0.10;;;25.30;56.60;;;;;;6127743;23;20413;-80
2022/10/18 13:52:42;;;;;;;0.10;0.10;;;25.40;56.00;;;;;;6129797;23;20056;-81
2022/10/18 13:55:30;;;;;;;0.00;0.00;;;24.70;56.10;;;;;;6156624;23;20100;-81
2022/10/18 13:58:03;;;;;;;0.30;0.10;;;24.60;57.40;;;;;;6157210;23;20025;-82
2022/10/18 14:01:11;;;;;;;0.00;0.00;;;24.50;58.10;;;;;;6130889;23;20105;-82
2022/10/18 14:03:50;;;;;;;0.10;0.10;;;24.50;57.90;;;;;;6130340;23;20044;-82
2022/10/18 14:06:32;;;;;;;0.00;0.00;;;24.50;57.80;;;;;;6131223;23;20030;-82
2022/10/18 14:09:19;;;;;;;0.32;0.00;;;24.50;57.80;;;;;;6130497;23;20041;-79
2022/10/18 14:12:24;;;;;;;;;;;24.40;57.20;;;;;;6131460;23;20385;-82
2022/10/18 14:15:01;;;;;;;;;;;24.60;57.90;;;;;;6130473;23;19923;-81
2022/10/18 14:17:43;;;;;;;;;;;24.30;57.20;;;;;;6135812;23;19920;-80
2022/10/18 14:20:16;;;;;;;;;;;24.30;58.60;;;;;;6131410;23;19953;-81
2022/10/18 14:23:09;;;;;;;;;;;24.10;57.90;;;;;;6130793;23;19916;-80
2022/10/18 14:25:37;;;;;;;;;;;24.10;58.00;;;;;;6125815;23;19916;-80
2022/10/18 14:28:03;;;;;;;;;;;24.00;58.40;;;;;;6130618;23;19931;-80
2022/10/18 14:30:50;;;;;;;;;;;24.00;58.30;;;;;;6131710;23;19940;-80
2022/10/18 14:33:36;;;;;;;;;;;24.00;57.90;;;;;;6129962;23;20304;-80
2022/10/18 14:36:06;;;;;;;;;;;24.20;57.50;;;;;;6130868;23;19951;-80
2022/10/18 14:38:50;;;;;;;;;;;24.20;57.30;;;;;;6150381;23;19917;-81